Airfield :
LOGIN :

Register | Disclaimer

   EN    FR    IT 

 










Legend :    VFR   Marginal VFR   IFR   Intensive IFR   Very Intensive IFR
Visi :
Ceiling :
>= 8 km
>= 3000ft
5 to 8 km
1000 to 3000 ft
1500m to 5 km
500 to 1000 ft
800 to 1500m
200 to 500 ft
< 800m
< 200 ft
Symbols :   Thunderstorms  Fog  Heavy snow  Heavy precipitations  Wind > 20 kt
SIGMETs :     Misc.  Thunderstorms  Icing  Turbulence  Mountain Waves  Volcanic Ashes






- Airport Elevation : 1742 ft
- IATA code : SOF


LBSF - Sofia Int.

CURRENT METAR :
  • 070200Z 34004KT CAVOK 12/09 Q1009 NOSIG

EXPIRED METARs :
  • 070130Z VRB01KT CAVOK 12/09 Q1009 NOSIG
  • 070100Z VRB01KT CAVOK 13/09 Q1009 NOSIG
  • 070030Z 29003KT CAVOK 12/09 Q1009 NOSIG
  • 070000Z 25004KT 200V260 CAVOK 12/09 Q1009 NOSIG
  • 062330Z 05003KT CAVOK 13/09 Q1009 NOSIG

TAF TAF LBSF
Valid from the 07 at 00:00 until the 08 at 00:00 UTC


062300Z 0700/0724 VRB04KT 9999 SCT040 BKN070
BECMG 0708/0710 11010KT
TEMPO 0709/0717 VRB16G26KT 5000 TSRA SCT030CB BKN040
BECMG 0719/0721 VRB04KT



MET'MAP, your aeronautical weather chart ! - Copyright ORBIFLY December 2007 - Disclaimer

ORBIFLY MET'MAP TEAM :

Programming & Development : Alexandra Zaïnal
Concept & original design : Baudouin d'Aumeries
Assistance for programming : Marc-Olivier Méhu
Technical & hardware support : Manuel Goepfert

Contact : metmap@orbifly.com




SOURCES & CREDITS :

   NOAA